Time,TemperatureF,DewpointF,PressureIn,WindDirection,WindDirectionDegrees,WindSpeedMPH,WindSpeedGustMPH,Humidity,HourlyPrecipIn,Conditions,Clouds,dailyrainin,SolarRadiationWatts/m^2,SoftwareType,DateUTC
2013-03-01 00:00:00,35.7,35.5,29.44,NW,315,0.0,2.0,99,0.00,OVC,SCT,0.00,0.0,WeatherDisplay:10.37,2013-03-01 05:00:00,
2013-03-01 00:05:00,35.6,35.3,29.44,NW,315,1.0,2.0,99,0.00,OVC,SCT,0.00,0.0,WeatherDisplay:10.37,2013-03-01 05:05:00,
2013-03-01 00:10:00,35.6,35.3,29.44,NW,315,0.0,2.0,99,0.00,OVC,SCT,0.00,0.0,WeatherDisplay:10.37,2013-03-01 05:10:00,
2013-03-01 00:15:00,35.6,35.3,29.44,NW,315,0.0,1.0,99,0.00,OVC,SCT,0.00,0.0,WeatherDisplay:10.37,2013-03-01 05:15:00,
2013-03-01 00:25:00,35.6,35.3,29.45,NW,315,0.0,1.0,99,0.00,OVC,SCT,0.00,0.0,WeatherDisplay:10.37,2013-03-01 05:25:00,
2013-03-01 00:30:00,35.6,35.3,29.45,NW,315,0.0,1.0,99,0.00,OVC,SCT,0.00,0.0,WeatherDisplay:10.37,2013-03-01 05:30:00,
2013-03-01 00:40:00,35.4,35.2,29.45,NW,315,0.0,2.0,99,0.00,OVC,SCT,0.00,0.0,WeatherDisplay:10.37,2013-03-01 05:40:00,
2013-03-01 00:45:00,35.6,35.3,29.45,NW,315,0.0,1.0,99,0.00,OVC,SCT,0.00,0.0,WeatherDisplay:10.37,2013-03-01 05:45:00,
2013-03-01 00:55:00,35.4,35.2,29.44,NW,315,0.0,1.0,99,0.00,BKN,SCT,0.00,0.0,WeatherDisplay:10.37,2013-03-01 05:55:00,
2013-03-01 01:05:00,35.6,35.3,29.44,NW,315,0.0,0.0,99,0.00,BKN,SCT,0.00,0.0,WeatherDisplay:10.37,2013-03-01 06:05:00,
2013-03-01 01:10:00,35.4,35.2,29.44,NW,315,0.0,2.0,99,0.00,BKN,SCT,0.00,0.0,WeatherDisplay:10.37,2013-03-01 06:10:00,
2013-03-01 01:15:00,35.6,35.3,29.45,WNW,288,1.0,2.0,99,0.00,BKN,SCT,0.00,0.0,WeatherDisplay:10.37,2013-03-01 06:15:00,
2013-03-01 01:25:00,35.4,35.2,29.44,SW,225,0.0,1.0,99,0.00,OVC,SCT,0.00,0.0,WeatherDisplay:10.37,2013-03-01 06:25:00,
2013-03-01 01:30:00,35.4,35.2,29.44,SW,225,0.0,1.0,99,0.00,OVC,SCT,0.00,0.0,WeatherDisplay:10.37,2013-03-01 06:30:00,
2013-03-01 01:40:00,35.2,35.0,29.45,SW,225,0.0,1.0,99,0.00,OVC,SCT,0.00,0.0,WeatherDisplay:10.37,2013-03-01 06:40:00,
2013-03-01 01:45:00,35.2,35.0,29.45,SW,225,0.0,1.0,99,0.00,OVC,SCT,0.00,0.0,WeatherDisplay:10.37,2013-03-01 06:45:00,
2013-03-01 01:55:00,35.2,35.0,29.44,SW,225,0.0,0.0,99,0.00,OVC,SCT,0.00,0.0,WeatherDisplay:10.37,2013-03-01 06:55:00,
2013-03-01 02:05:00,35.1,34.8,29.45,SW,225,0.0,0.0,99,0.00,OVC,SCT,0.00,0.0,WeatherDisplay:10.37,2013-03-01 07:05:00,
2013-03-01 02:10:00,35.1,34.8,29.44,SW,225,0.0,0.0,99,0.00,OVC,SCT,0.00,0.0,WeatherDisplay:10.37,2013-03-01 07:10:00,
2013-03-01 02:15:00,35.1,34.8,29.44,SW,225,0.0,0.0,99,0.00,OVC,SCT,0.00,0.0,WeatherDisplay:10.37,2013-03-01 07:15:00,
2013-03-01 02:25:00,35.1,34.8,29.44,SW,225,0.0,0.0,99,0.00,OVC,SCT,0.00,0.0,WeatherDisplay:10.37,2013-03-01 07:25:00,
2013-03-01 02:30:00,35.1,34.8,29.45,SW,225,0.0,0.0,99,0.00,OVC,SCT,0.00,0.0,WeatherDisplay:10.37,2013-03-01 07:30:00,
2013-03-01 02:40:00,34.9,34.6,29.45,SW,225,0.0,0.0,99,0.00,OVC,SCT,0.00,0.0,WeatherDisplay:10.37,2013-03-01 07:40:00,
2013-03-01 02:45:00,32.6,32.4,29.44,SW,222,0.0,0.0,99,0.00,OVC,SCT,0.00,0.0,WeatherDisplay:10.37,2013-03-01 07:45:00,
2013-03-01 02:55:00,34.9,34.6,29.45,SW,224,0.0,2.0,99,0.00,OVC,SCT,0.00,0.0,WeatherDisplay:10.37,2013-03-01 07:55:00,
2013-03-01 03:05:00,34.9,34.6,29.44,SW,225,0.0,2.0,99,0.00,OVC,SCT,0.00,0.0,WeatherDisplay:10.37,2013-03-01 08:05:00,
2013-03-01 03:10:00,34.9,34.6,29.45,SW,225,0.0,2.0,99,0.00,OVC,SCT,0.00,0.0,WeatherDisplay:10.37,2013-03-01 08:10:00,
2013-03-01 03:15:00,34.9,34.6,29.45,SW,225,0.0,2.0,99,0.00,OVC,SCT,0.00,0.0,WeatherDisplay:10.37,2013-03-01 08:15:00,
2013-03-01 03:25:00,34.9,34.6,29.44,SW,225,0.0,0.0,99,0.00,OVC,SCT,0.00,0.0,WeatherDisplay:10.37,2013-03-01 08:25:00,
2013-03-01 03:30:00,34.9,34.6,29.45,SW,225,0.0,1.0,99,0.00,OVC,SCT,0.00,0.0,WeatherDisplay:10.37,2013-03-01 08:30:00,
2013-03-01 03:40:00,34.7,34.4,29.45,SW,225,0.0,2.0,99,0.00,OVC,SCT,0.00,0.0,WeatherDisplay:10.37,2013-03-01 08:40:00,
2013-03-01 03:45:00,34.7,34.4,29.45,SW,225,0.0,2.0,99,0.00,OVC,SCT,0.00,0.0,WeatherDisplay:10.37,2013-03-01 08:45:00,
2013-03-01 03:55:00,34.7,34.4,29.45,SW,225,0.0,1.0,99,0.00,OVC,SCT,0.00,0.0,WeatherDisplay:10.37,2013-03-01 08:55:00,
2013-03-01 04:06:00,34.5,34.3,29.46,SW,225,0.0,1.0,99,0.00,BKN,SCT,0.00,0.0,WeatherDisplay:10.37,2013-03-01 09:06:00,
2013-03-01 04:16:00,34.3,31.9,29.46,WSW,243,0.0,1.0,91,0.00,BKN,SCT,0.00,0.0,WeatherDisplay:10.37,2013-03-01 09:16:00,
2013-03-01 04:25:00,34.0,33.7,29.46,West,259,1.0,2.0,99,0.00,BKN,SCT,0.00,0.0,WeatherDisplay:10.37,2013-03-01 09:25:00,
2013-03-01 04:31:00,34.0,33.7,29.46,West,270,1.0,2.0,99,0.00,BKN,SCT,0.00,0.0,WeatherDisplay:10.37,2013-03-01 09:31:00,
2013-03-01 04:40:00,33.6,33.4,29.46,West,270,0.0,1.0,99,0.00,BKN,SCT,0.00,0.0,WeatherDisplay:10.37,2013-03-01 09:40:00,
2013-03-01 04:45:00,33.4,33.1,29.46,West,270,0.0,1.0,99,0.00,BKN,SCT,0.00,0.0,WeatherDisplay:10.37,2013-03-01 09:45:00,
2013-03-01 04:55:00,32.7,32.5,29.46,West,270,0.0,1.0,99,0.00,BKN,SCT,0.00,0.0,WeatherDisplay:10.37,2013-03-01 09:55:00,
2013-03-01 05:05:00,32.5,32.3,29.46,West,270,0.0,0.0,99,0.00,BKN,SCT,0.00,0.0,WeatherDisplay:10.37,2013-03-01 10:05:00,
2013-03-01 05:10:00,32.2,31.9,29.46,West,270,0.0,1.0,99,0.00,BKN,SCT,0.00,0.0,WeatherDisplay:10.37,2013-03-01 10:10:00,
2013-03-01 05:15:00,32.0,31.8,29.46,West,270,0.0,1.0,99,0.00,BKN,SCT,0.00,0.0,WeatherDisplay:10.37,2013-03-01 10:15:00,
2013-03-01 05:25:00,31.8,31.6,29.46,West,270,0.0,1.0,99,0.00,CLR,SCT,0.00,0.0,WeatherDisplay:10.37,2013-03-01 10:25:00,
2013-03-01 05:30:00,31.5,31.2,29.47,West,270,0.0,0.0,99,0.00,CLR,SCT,0.00,0.0,WeatherDisplay:10.37,2013-03-01 10:30:00,
2013-03-01 05:40:00,30.7,30.5,29.47,West,270,0.0,0.0,99,0.00,CLR,SCT,0.00,0.0,WeatherDisplay:10.37,2013-03-01 10:40:00,
2013-03-01 05:45:00,30.6,30.3,29.47,West,270,0.0,0.0,99,0.00,CLR,SCT,0.00,0.0,WeatherDisplay:10.37,2013-03-01 10:45:00,
2013-03-01 05:55:00,30.4,30.1,29.47,West,270,0.0,0.0,99,0.00,CLR,SCT,0.00,0.0,WeatherDisplay:10.37,2013-03-01 10:55:00,
2013-03-01 06:05:00,30.0,29.8,29.48,West,270,0.0,1.0,99,0.00,CLR,SCT,0.00,0.0,WeatherDisplay:10.37,2013-03-01 11:05:00,
2013-03-01 06:10:00,29.8,29.6,29.48,West,270,0.0,1.0,99,0.00,CLR,SCT,0.00,0.0,WeatherDisplay:10.37,2013-03-01 11:10:00,
2013-03-01 06:15:00,29.8,29.6,29.48,West,270,0.0,1.0,99,0.00,CLR,SCT,0.00,0.0,WeatherDisplay:10.37,2013-03-01 11:15:00,
2013-03-01 06:20:00,29.8,29.6,29.48,West,270,0.0,1.0,99,0.00,CLR,SCT,0.00,0.0,WeatherDisplay:10.37,2013-03-01 11:20:00,
2013-03-01 06:30:00,29.7,29.4,29.48,West,270,0.0,1.0,99,0.00,CLR,SCT,0.00,0.0,WeatherDisplay:10.37,2013-03-01 11:30:00,
2013-03-01 06:40:00,29.8,29.6,29.48,West,270,0.0,1.0,99,0.00,CLR,SCT,0.00,0.0,WeatherDisplay:10.37,2013-03-01 11:40:00,
2013-03-01 06:45:00,30.0,29.8,29.48,West,270,0.0,2.0,99,0.00,CLR,SCT,0.00,0.0,WeatherDisplay:10.37,2013-03-01 11:45:00,
2013-03-01 06:55:00,30.6,30.3,29.48,North,0,0.0,1.0,99,0.00,CLR,SCT,0.00,0.0,WeatherDisplay:10.37,2013-03-01 11:55:00,
2013-03-01 07:05:00,31.1,30.9,29.49,North,0,0.0,1.0,99,0.00,CLR,SCT,0.00,0.0,WeatherDisplay:10.37,2013-03-01 12:05:00,
2013-03-01 07:10:00,31.8,31.6,29.49,North,0,0.0,2.0,99,0.00,CLR,SCT,0.00,0.0,WeatherDisplay:10.37,2013-03-01 12:10:00,
2013-03-01 07:16:00,32.0,31.8,29.49,North,357,0.0,2.0,99,0.00,CLR,SCT,0.00,0.0,WeatherDisplay:10.37,2013-03-01 12:16:00,
2013-03-01 07:25:00,32.5,32.3,29.49,NW,315,0.0,2.0,99,0.00,CLR,SCT,0.00,0.0,WeatherDisplay:10.37,2013-03-01 12:25:00,
2013-03-01 07:30:00,33.5,33.3,29.50,NW,315,0.0,1.0,99,0.00,CLR,SCT,0.00,0.0,WeatherDisplay:10.37,2013-03-01 12:30:00,
2013-03-01 07:40:00,34.3,34.1,29.50,NW,315,0.0,2.0,99,0.00,CLR,SCT,0.00,0.0,WeatherDisplay:10.37,2013-03-01 12:40:00,
2013-03-01 07:45:00,34.3,34.1,29.50,WNW,289,0.0,2.0,99,0.00,CLR,SCT,0.00,0.0,WeatherDisplay:10.37,2013-03-01 12:45:00,
2013-03-01 07:55:00,34.7,34.4,29.51,North,0,0.0,2.0,99,0.00,CLR,SCT,0.00,0.0,WeatherDisplay:10.37,2013-03-01 12:55:00,
2013-03-01 08:05:00,34.9,34.6,29.51,North,353,1.0,5.0,99,0.00,CLR,SCT,0.00,0.0,WeatherDisplay:10.37,2013-03-01 13:05:00,
2013-03-01 08:10:00,35.4,35.2,29.51,NW,311,1.0,6.0,99,0.00,CLR,SCT,0.00,0.0,WeatherDisplay:10.37,2013-03-01 13:10:00,
2013-03-01 08:15:00,36.0,35.7,29.51,NW,312,1.0,8.0,99,0.00,CLR,SCT,0.00,0.0,WeatherDisplay:10.37,2013-03-01 13:15:00,
2013-03-01 08:25:00,38.0,37.7,29.51,NW,307,6.0,9.0,99,0.00,CLR,SCT,0.00,0.0,WeatherDisplay:10.37,2013-03-01 13:25:00,
2013-03-01 08:30:00,38.7,37.2,29.51,NNW,344,2.0,8.0,94,0.00,CLR,SCT,0.00,0.0,WeatherDisplay:10.37,2013-03-01 13:30:00,
2013-03-01 08:40:00,39.4,35.5,29.51,NNW,341,2.0,12.0,86,0.00,CLR,SCT,0.00,0.0,WeatherDisplay:10.37,2013-03-01 13:40:00,
2013-03-01 08:45:00,39.4,34.6,29.51,North,4,3.0,9.0,83,0.00,CLR,SCT,0.00,0.0,WeatherDisplay:10.37,2013-03-01 13:45:00,
2013-03-01 08:55:00,39.7,33.8,29.52,North,1,3.0,12.0,79,0.00,CLR,SCT,0.00,0.0,WeatherDisplay:10.37,2013-03-01 13:55:00,
2013-03-01 09:05:00,40.0,33.4,29.51,NNW,335,2.0,9.0,77,0.00,SCT,SCT,0.00,0.0,WeatherDisplay:10.37,2013-03-01 14:05:00,
2013-03-01 09:10:00,40.3,33.6,29.52,NNW,348,3.0,8.0,77,0.00,SCT,SCT,0.00,0.0,WeatherDisplay:10.37,2013-03-01 14:10:00,
2013-03-01 09:15:00,40.3,33.3,29.52,NNW,348,2.0,10.0,76,0.00,SCT,SCT,0.00,0.0,WeatherDisplay:10.37,2013-03-01 14:15:00,
2013-03-01 09:25:00,40.5,33.2,29.52,NNW,346,2.0,8.0,75,0.00,SCT,SCT,0.00,0.0,WeatherDisplay:10.37,2013-03-01 14:25:00,
2013-03-01 09:30:00,40.5,32.5,29.52,North,349,3.0,11.0,73,0.00,SCT,SCT,0.00,0.0,WeatherDisplay:10.37,2013-03-01 14:30:00,
2013-03-01 09:40:00,40.5,32.2,29.52,North,358,5.0,9.0,72,0.00,SCT,SCT,0.00,0.0,WeatherDisplay:10.37,2013-03-01 14:40:00,
2013-03-01 09:45:00,40.5,31.8,29.52,North,360,3.0,9.0,71,0.00,SCT,SCT,0.00,0.0,WeatherDisplay:10.37,2013-03-01 14:45:00,
2013-03-01 09:55:00,40.5,32.1,29.52,North,9,3.0,8.0,72,0.00,SCT,SCT,0.00,0.0,WeatherDisplay:10.37,2013-03-01 14:55:00,
2013-03-01 10:05:00,40.5,31.8,29.52,NNW,334,2.0,8.0,71,0.00,OVC,SCT,0.00,0.0,WeatherDisplay:10.37,2013-03-01 15:05:00,
2013-03-01 10:10:00,40.5,31.8,29.52,NNW,347,2.0,9.0,71,0.00,OVC,SCT,0.00,0.0,WeatherDisplay:10.37,2013-03-01 15:10:00,
2013-03-01 10:15:00,40.5,31.4,29.52,North,352,2.0,8.0,70,0.00,OVC,SCT,0.00,0.0,WeatherDisplay:10.37,2013-03-01 15:15:00,
2013-03-01 10:25:00,40.8,31.8,29.52,NNW,348,3.0,9.0,70,0.00,OVC,SCT,0.00,0.0,WeatherDisplay:10.37,2013-03-01 15:25:00,
2013-03-01 10:30:00,41.0,32.0,29.52,NW,319,3.0,9.0,70,0.00,OVC,SCT,0.00,0.0,WeatherDisplay:10.37,2013-03-01 15:30:00,
2013-03-01 10:40:00,41.3,31.5,29.52,North,4,5.0,11.0,68,0.00,OVC,SCT,0.00,0.0,WeatherDisplay:10.37,2013-03-01 15:40:00,
2013-03-01 10:45:00,41.5,31.7,29.52,North,357,3.0,12.0,68,0.00,OVC,SCT,0.00,0.0,WeatherDisplay:10.37,2013-03-01 15:45:00,
2013-03-01 10:55:00,41.5,31.0,29.53,NNE,12,5.0,12.0,66,0.00,OVC,SCT,0.00,0.0,WeatherDisplay:10.37,2013-03-01 15:55:00,
2013-03-01 11:05:00,41.7,30.8,29.53,North,9,3.0,8.0,65,0.00,BKN,SCT,0.00,0.0,WeatherDisplay:10.37,2013-03-01 16:05:00,
2013-03-01 11:10:00,41.9,31.7,29.52,NNE,30,1.0,6.0,67,0.00,BKN,SCT,0.00,0.0,WeatherDisplay:10.37,2013-03-01 16:10:00,
2013-03-01 11:15:00,41.8,30.9,29.53,North,359,5.0,11.0,65,0.00,BKN,SCT,0.00,0.0,WeatherDisplay:10.37,2013-03-01 16:15:00,
2013-03-01 11:25:00,41.5,30.6,29.53,North,351,5.0,10.0,65,0.00,BKN,SCT,0.00,0.0,WeatherDisplay:10.37,2013-03-01 16:25:00,
2013-03-01 11:30:00,41.4,31.2,29.53,North,3,1.0,8.0,67,0.00,BKN,SCT,0.00,0.0,WeatherDisplay:10.37,2013-03-01 16:30:00,
2013-03-01 11:40:00,41.7,31.2,29.53,North,353,5.0,10.0,66,0.00,BKN,SCT,0.00,0.0,WeatherDisplay:10.37,2013-03-01 16:40:00,
2013-03-01 11:45:00,41.7,31.2,29.54,North,5,3.0,12.0,66,0.00,BKN,SCT,0.00,0.0,WeatherDisplay:10.37,2013-03-01 16:45:00,
2013-03-01 11:55:00,41.7,31.2,29.54,North,359,1.0,8.0,66,0.00,BKN,SCT,0.00,0.0,WeatherDisplay:10.37,2013-03-01 16:55:00,
2013-03-01 12:05:00,41.5,31.0,29.54,NNW,340,2.0,8.0,66,0.00,BKN,SCT,0.00,0.0,WeatherDisplay:10.37,2013-03-01 17:05:00,
2013-03-01 12:10:00,41.5,31.0,29.53,North,352,2.0,8.0,66,0.00,BKN,SCT,0.00,0.0,WeatherDisplay:10.37,2013-03-01 17:10:00,
2013-03-01 12:15:00,41.4,30.8,29.53,North,357,1.0,8.0,66,0.00,BKN,SCT,0.00,0.0,WeatherDisplay:10.37,2013-03-01 17:15:00,
2013-03-01 12:25:00,41.4,30.8,29.53,North,354,3.0,10.0,66,0.00,OVC,SCT,0.00,0.0,WeatherDisplay:10.37,2013-03-01 17:25:00,
2013-03-01 12:30:00,41.4,30.8,29.53,North,350,2.0,8.0,66,0.00,OVC,SCT,0.00,0.0,WeatherDisplay:10.37,2013-03-01 17:30:00,
2013-03-01 12:40:00,41.2,30.7,29.53,North,9,2.0,6.0,66,0.00,OVC,SCT,0.00,0.0,WeatherDisplay:10.37,2013-03-01 17:40:00,
2013-03-01 12:50:00,41.4,30.5,29.52,NNE,19,3.0,13.0,65,0.00,OVC,SCT,0.00,0.0,WeatherDisplay:10.37,2013-03-01 17:50:00,
2013-03-01 12:55:00,41.4,30.5,29.52,North,8,2.0,10.0,65,0.00,OVC,SCT,0.00,0.0,WeatherDisplay:10.37,2013-03-01 17:55:00,
2013-03-01 13:05:00,41.4,30.8,29.52,NNW,335,1.0,5.0,66,0.00,OVC,SCT,0.00,0.0,WeatherDisplay:10.37,2013-03-01 18:05:00,
2013-03-01 13:10:00,41.4,30.5,29.52,NNW,338,3.0,6.0,65,0.00,OVC,SCT,0.00,0.0,WeatherDisplay:10.37,2013-03-01 18:10:00,
2013-03-01 13:15:00,41.2,30.3,29.52,NNW,339,2.0,8.0,65,0.00,OVC,SCT,0.00,0.0,WeatherDisplay:10.37,2013-03-01 18:15:00,
2013-03-01 13:25:00,41.2,30.3,29.52,North,359,2.0,10.0,65,0.00,BKN,SCT,0.00,0.0,WeatherDisplay:10.37,2013-03-01 18:25:00,
2013-03-01 13:31:00,40.9,29.6,29.53,NNW,337,3.0,9.0,64,0.00,BKN,SCT,0.00,0.0,WeatherDisplay:10.37,2013-03-01 18:31:00,
2013-03-01 13:40:00,40.6,29.8,29.53,North,352,3.0,9.0,65,0.00,BKN,SCT,0.00,0.0,WeatherDisplay:10.37,2013-03-01 18:40:00,
2013-03-01 13:45:00,40.6,29.8,29.53,NNW,343,3.0,8.0,65,0.00,BKN,SCT,0.00,0.0,WeatherDisplay:10.37,2013-03-01 18:45:00,
2013-03-01 13:55:00,40.6,29.8,29.53,NNE,16,3.0,8.0,65,0.00,BKN,SCT,0.00,0.0,WeatherDisplay:10.37,2013-03-01 18:55:00,
2013-03-01 14:05:00,40.6,29.8,29.53,North,1,2.0,6.0,65,0.00,BKN,SCT,0.00,0.0,WeatherDisplay:10.37,2013-03-01 19:05:00,
2013-03-01 14:10:00,40.6,29.8,29.52,NNW,345,2.0,5.0,65,0.00,BKN,SCT,0.00,0.0,WeatherDisplay:10.37,2013-03-01 19:10:00,
2013-03-01 14:15:00,40.6,29.4,29.53,North,356,2.0,13.0,64,0.00,BKN,SCT,0.00,0.0,WeatherDisplay:10.37,2013-03-01 19:15:00,
2013-03-01 14:25:00,40.4,28.8,29.53,North,358,5.0,13.0,63,0.00,OVC,SCT,0.00,0.0,WeatherDisplay:10.37,2013-03-01 19:25:00,
2013-03-01 14:31:00,40.3,29.1,29.53,North,4,2.0,10.0,64,0.00,OVC,SCT,0.00,0.0,WeatherDisplay:10.37,2013-03-01 19:31:00,
2013-03-01 14:40:00,40.6,30.2,29.53,North,349,1.0,7.0,66,0.00,OVC,SCT,0.00,0.0,WeatherDisplay:10.37,2013-03-01 19:40:00,
2013-03-01 14:45:00,41.0,30.5,29.53,NNW,335,1.0,3.0,66,0.00,OVC,SCT,0.00,0.0,WeatherDisplay:10.37,2013-03-01 19:45:00,
2013-03-01 14:55:00,41.1,29.8,29.53,North,6,2.0,7.0,64,0.00,OVC,SCT,0.00,0.0,WeatherDisplay:10.37,2013-03-01 19:55:00,
2013-03-01 15:05:00,40.8,29.6,29.54,NNW,335,2.0,6.0,64,0.00,OVC,SCT,0.00,0.0,WeatherDisplay:10.37,2013-03-01 20:05:00,
2013-03-01 15:10:00,40.8,29.2,29.54,NNW,330,3.0,11.0,63,0.00,OVC,SCT,0.00,0.0,WeatherDisplay:10.37,2013-03-01 20:10:00,
2013-03-01 15:15:00,40.5,29.2,29.54,NNW,335,2.0,10.0,64,0.00,OVC,SCT,0.00,0.0,WeatherDisplay:10.37,2013-03-01 20:15:00,
2013-03-01 15:25:00,40.5,29.2,29.54,NNE,19,3.0,11.0,64,0.00,OVC,SCT,0.00,0.0,WeatherDisplay:10.37,2013-03-01 20:25:00,
2013-03-01 15:30:00,40.5,29.2,29.54,NNE,14,3.0,9.0,64,0.00,OVC,SCT,0.00,0.0,WeatherDisplay:10.37,2013-03-01 20:30:00,
2013-03-01 15:40:00,40.6,29.4,29.54,NNE,28,2.0,7.0,64,0.00,OVC,SCT,0.00,0.0,WeatherDisplay:10.37,2013-03-01 20:40:00,
2013-03-01 15:45:00,40.6,29.8,29.54,NNE,30,1.0,5.0,65,0.00,OVC,SCT,0.00,0.0,WeatherDisplay:10.37,2013-03-01 20:45:00,
2013-03-01 15:55:00,40.6,29.8,29.54,North,357,0.0,4.0,65,0.00,OVC,SCT,0.00,0.0,WeatherDisplay:10.37,2013-03-01 20:55:00,
2013-03-01 16:05:00,40.6,29.8,29.54,North,358,0.0,3.0,65,0.00,OVC,SCT,0.00,0.0,WeatherDisplay:10.37,2013-03-01 21:05:00,
2013-03-01 16:10:00,40.5,29.6,29.54,NNE,17,2.0,6.0,65,0.00,OVC,SCT,0.00,0.0,WeatherDisplay:10.37,2013-03-01 21:10:00,
2013-03-01 16:15:00,40.5,29.6,29.54,NNE,12,1.0,6.0,65,0.00,OVC,SCT,0.00,0.0,WeatherDisplay:10.37,2013-03-01 21:15:00,
2013-03-01 16:25:00,40.4,29.5,29.54,North,357,0.0,6.0,65,0.00,OVC,SCT,0.00,0.0,WeatherDisplay:10.37,2013-03-01 21:25:00,
2013-03-01 16:30:00,40.3,29.4,29.54,North,353,1.0,6.0,65,0.00,OVC,SCT,0.00,0.0,WeatherDisplay:10.37,2013-03-01 21:30:00,
2013-03-01 16:40:00,39.9,29.1,29.55,North,5,1.0,6.0,65,0.00,OVC,SCT,0.00,0.0,WeatherDisplay:10.37,2013-03-01 21:40:00,
2013-03-01 16:45:00,39.8,29.7,29.55,NW,322,1.0,6.0,67,0.00,OVC,SCT,0.00,0.0,WeatherDisplay:10.37,2013-03-01 21:45:00,
2013-03-01 16:55:00,39.4,29.3,29.55,NNE,14,1.0,7.0,67,0.00,OVC,SCT,0.00,0.0,WeatherDisplay:10.37,2013-03-01 21:55:00,
2013-03-01 17:05:00,39.4,29.3,29.55,NNW,348,3.0,8.0,67,0.00,OVC,SCT,0.00,0.0,WeatherDisplay:10.37,2013-03-01 22:05:00,
2013-03-01 17:10:00,39.4,29.3,29.55,NNE,28,1.0,6.0,67,0.00,OVC,SCT,0.00,0.0,WeatherDisplay:10.37,2013-03-01 22:10:00,
2013-03-01 17:15:00,39.4,29.3,29.56,ENE,72,1.0,4.0,67,0.00,OVC,SCT,0.00,0.0,WeatherDisplay:10.37,2013-03-01 22:15:00,
2013-03-01 17:25:00,39.0,29.3,29.56,North,2,2.0,6.0,68,0.00,OVC,SCT,0.00,0.0,WeatherDisplay:10.37,2013-03-01 22:25:00,
2013-03-01 17:30:00,38.8,29.2,29.56,NNW,348,2.0,6.0,68,0.00,OVC,SCT,0.00,0.0,WeatherDisplay:10.37,2013-03-01 22:30:00,
2013-03-01 17:40:00,38.4,29.4,29.56,NNW,337,1.0,3.0,70,0.00,OVC,SCT,0.00,0.0,WeatherDisplay:10.37,2013-03-01 22:40:00,
2013-03-01 17:45:00,38.1,29.2,29.56,NNW,333,1.0,3.0,70,0.00,OVC,SCT,0.00,0.0,WeatherDisplay:10.37,2013-03-01 22:45:00,
2013-03-01 17:55:00,37.4,29.9,29.57,NW,315,0.0,2.0,74,0.00,OVC,SCT,0.00,0.0,WeatherDisplay:10.37,2013-03-01 22:55:00,
2013-03-01 18:05:00,37.0,29.8,29.57,NW,317,1.0,2.0,75,0.00,OVC,SCT,0.00,0.0,WeatherDisplay:10.37,2013-03-01 23:05:00,
2013-03-01 18:10:00,36.7,30.1,29.57,NW,315,0.0,2.0,77,0.00,OVC,SCT,0.00,0.0,WeatherDisplay:10.37,2013-03-01 23:10:00,
2013-03-01 18:15:00,36.5,30.0,29.57,WNW,290,1.0,2.0,77,0.00,OVC,SCT,0.00,0.0,WeatherDisplay:10.37,2013-03-01 23:15:00,
2013-03-01 18:25:00,36.3,30.4,29.57,SW,225,1.0,2.0,79,0.00,OVC,SCT,0.00,0.0,WeatherDisplay:10.37,2013-03-01 23:25:00,
2013-03-01 18:30:00,36.3,30.1,29.58,SSW,211,0.0,2.0,78,0.00,OVC,SCT,0.00,0.0,WeatherDisplay:10.37,2013-03-01 23:30:00,
2013-03-01 18:40:00,36.9,30.0,29.58,North,358,1.0,10.0,76,0.00,OVC,SCT,0.00,0.0,WeatherDisplay:10.37,2013-03-01 23:40:00,
2013-03-01 18:45:00,37.3,30.1,29.58,NNW,348,2.0,7.0,75,0.00,OVC,SCT,0.00,0.0,WeatherDisplay:10.37,2013-03-01 23:45:00,
2013-03-01 18:55:00,37.4,29.9,29.58,NW,311,1.0,6.0,74,0.00,OVC,SCT,0.00,0.0,WeatherDisplay:10.37,2013-03-01 23:55:00,
2013-03-01 19:05:00,37.4,29.9,29.58,NW,323,3.0,7.0,74,0.00,OVC,SCT,0.00,0.0,WeatherDisplay:10.37,2013-03-02 00:05:00,
2013-03-01 19:15:00,37.6,29.4,29.58,NNW,331,1.0,6.0,72,0.00,OVC,SCT,0.00,0.0,WeatherDisplay:10.37,2013-03-02 00:15:00,
2013-03-01 19:25:00,37.5,29.3,29.58,NNW,329,2.0,7.0,72,0.00,OVC,SCT,0.00,0.0,WeatherDisplay:10.37,2013-03-02 00:25:00,
2013-03-01 19:30:00,37.4,29.2,29.58,NNW,339,2.0,7.0,72,0.00,OVC,SCT,0.00,0.0,WeatherDisplay:10.37,2013-03-02 00:30:00,
2013-03-01 19:40:00,37.4,29.2,29.58,NNW,328,2.0,7.0,72,0.00,OVC,SCT,0.00,0.0,WeatherDisplay:10.37,2013-03-02 00:40:00,
2013-03-01 19:45:00,37.4,28.9,29.58,NNW,338,3.0,11.0,71,0.00,OVC,SCT,0.00,0.0,WeatherDisplay:10.37,2013-03-02 00:45:00,
2013-03-01 19:55:00,37.2,29.0,29.59,North,356,2.0,6.0,72,0.00,OVC,SCT,0.00,0.0,WeatherDisplay:10.37,2013-03-02 00:55:00,
2013-03-01 20:05:00,37.0,29.2,29.59,NNW,331,1.0,5.0,73,0.00,OVC,SCT,0.00,0.0,WeatherDisplay:10.37,2013-03-02 01:05:00,
2013-03-01 20:15:00,37.0,29.2,29.59,NNW,343,2.0,5.0,73,0.00,OVC,SCT,0.00,0.0,WeatherDisplay:10.37,2013-03-02 01:15:00,
2013-03-01 20:25:00,36.8,28.9,29.59,NW,306,0.0,5.0,73,0.00,OVC,SCT,0.00,0.0,WeatherDisplay:10.37,2013-03-02 01:25:00,
2013-03-01 20:30:00,36.5,29.0,29.59,NNW,328,2.0,5.0,74,0.00,OVC,SCT,0.00,0.0,WeatherDisplay:10.37,2013-03-02 01:30:00,
2013-03-01 20:40:00,36.4,28.9,29.59,NNW,335,2.0,4.0,74,0.00,OVC,SCT,0.00,0.0,WeatherDisplay:10.37,2013-03-02 01:40:00,
2013-03-01 20:45:00,36.3,28.8,29.59,NNW,346,0.0,5.0,74,0.00,OVC,SCT,0.00,0.0,WeatherDisplay:10.37,2013-03-02 01:45:00,
2013-03-01 20:55:00,36.3,29.2,29.59,West,272,5.0,8.0,75,0.00,OVC,SCT,0.00,0.0,WeatherDisplay:10.37,2013-03-02 01:55:00,
2013-03-01 21:05:00,36.5,29.0,29.59,NW,305,1.0,2.0,74,0.00,OVC,SCT,0.00,0.0,WeatherDisplay:10.37,2013-03-02 02:05:00,
2013-03-01 21:10:00,36.3,29.2,29.59,NW,315,1.0,6.0,75,0.00,OVC,SCT,0.00,0.0,WeatherDisplay:10.37,2013-03-02 02:10:00,
2013-03-01 21:15:00,36.1,29.3,29.58,WNW,302,1.0,4.0,76,0.00,OVC,SCT,0.00,0.0,WeatherDisplay:10.37,2013-03-02 02:15:00,
2013-03-01 21:25:00,35.8,29.0,29.59,NW,326,1.0,5.0,76,0.00,OVC,SCT,0.00,0.0,WeatherDisplay:10.37,2013-03-02 02:25:00,
2013-03-01 21:30:00,36.0,29.1,29.59,North,351,1.0,6.0,76,0.00,OVC,SCT,0.00,0.0,WeatherDisplay:10.37,2013-03-02 02:30:00,
2013-03-01 21:40:00,36.1,29.0,29.58,NW,323,1.0,7.0,75,0.00,OVC,SCT,0.00,0.0,WeatherDisplay:10.37,2013-03-02 02:40:00,
2013-03-01 21:45:00,36.1,28.9,29.59,NW,324,2.0,7.0,75,0.00,OVC,SCT,0.00,0.0,WeatherDisplay:10.37,2013-03-02 02:45:00,
2013-03-01 21:55:00,36.1,29.0,29.58,NNW,342,2.0,6.0,75,0.00,OVC,SCT,0.00,0.0,WeatherDisplay:10.37,2013-03-02 02:55:00,
2013-03-01 22:05:00,36.1,29.0,29.58,NNW,348,1.0,2.0,75,0.00,SCT,SCT,0.00,0.0,WeatherDisplay:10.37,2013-03-02 03:05:00,
2013-03-01 22:10:00,36.1,29.0,29.58,NW,317,1.0,5.0,75,0.00,SCT,SCT,0.00,0.0,WeatherDisplay:10.37,2013-03-02 03:10:00,
2013-03-01 22:15:00,36.0,28.8,29.58,NNW,344,2.0,9.0,75,0.00,SCT,SCT,0.00,0.0,WeatherDisplay:10.37,2013-03-02 03:15:00,
2013-03-01 22:25:00,36.0,28.8,29.58,North,5,3.0,10.0,75,0.00,SCT,SCT,0.00,0.0,WeatherDisplay:10.37,2013-03-02 03:25:00,
2013-03-01 22:30:00,36.0,28.8,29.58,NNW,339,1.0,8.0,75,0.00,SCT,SCT,0.00,0.0,WeatherDisplay:10.37,2013-03-02 03:30:00,
2013-03-01 22:40:00,35.8,28.6,29.58,NW,323,2.0,10.0,75,0.00,SCT,SCT,0.00,0.0,WeatherDisplay:10.37,2013-03-02 03:40:00,
2013-03-01 22:45:00,35.8,28.6,29.58,NNW,344,3.0,8.0,75,0.00,SCT,SCT,0.00,0.0,WeatherDisplay:10.37,2013-03-02 03:45:00,
2013-03-01 22:55:00,35.8,29.0,29.59,NNW,342,1.0,5.0,76,0.00,SCT,SCT,0.00,0.0,WeatherDisplay:10.37,2013-03-02 03:55:00,
2013-03-01 23:05:00,35.6,28.8,29.59,NW,317,1.0,3.0,76,0.00,SCT,SCT,0.00,0.0,WeatherDisplay:10.37,2013-03-02 04:05:00,
2013-03-01 23:10:00,35.6,28.8,29.58,NW,315,2.0,7.0,76,0.00,SCT,SCT,0.00,0.0,WeatherDisplay:10.37,2013-03-02 04:10:00,
2013-03-01 23:15:00,35.6,28.8,29.58,NNW,331,2.0,7.0,76,0.00,SCT,SCT,0.00,0.0,WeatherDisplay:10.37,2013-03-02 04:15:00,
2013-03-01 23:25:00,35.4,28.6,29.58,North,356,1.0,9.0,76,0.00,SCT,SCT,0.00,0.0,WeatherDisplay:10.37,2013-03-02 04:25:00,
2013-03-01 23:30:00,35.4,28.6,29.58,North,354,1.0,6.0,76,0.00,SCT,SCT,0.00,0.0,WeatherDisplay:10.37,2013-03-02 04:30:00,
2013-03-01 23:40:00,35.2,28.8,29.58,NNW,344,2.0,8.0,77,0.00,SCT,SCT,0.00,0.0,WeatherDisplay:10.37,2013-03-02 04:40:00,
2013-03-01 23:45:00,35.2,28.8,29.58,NW,317,2.0,6.0,77,0.00,SCT,SCT,0.00,0.0,WeatherDisplay:10.37,2013-03-02 04:45:00,
2013-03-01 23:55:00,35.2,28.8,29.58,NNW,338,1.0,5.0,77,0.00,SCT,SCT,0.00,0.0,WeatherDisplay:10.37,2013-03-02 04:55:00,